Time;durP1;ratioP1;P1;durP2;ratioP2;P2;SDS_P1;SDS_P2;PMS_P1;PMS_P2;Temp;Humidity;BMP_temperature;BMP_pressure;BME280_temperature;BME280_humidity;BME280_pressure;Samples;Min_cycle;Max_cycle;Signal;HPM_P1;HPM_P2
2021/11/14 00:04:10;;;;;;;0.10;0.10;;;;;;;-145.06;100.00;63404.56;10495701;28;20039;-70
2021/11/14 00:09:12;;;;;;;0.00;0.00;;;;;;;-145.06;100.00;63404.56;10520620;28;20383;-71
2021/11/14 00:14:13;;;;;;;0.00;0.00;;;;;;;-145.06;100.00;63404.56;10512902;28;20039;-71
2021/11/14 00:19:14;;;;;;;0.00;0.00;;;;;;;-145.06;100.00;63404.56;10526920;28;20035;-71
2021/11/14 00:24:15;;;;;;;0.10;0.10;;;;;;;-145.06;100.00;63404.56;10518434;28;20128;-70
2021/11/14 00:29:16;;;;;;;0.00;0.00;;;;;;;-145.06;100.00;63404.56;10520543;28;20031;-71
2021/11/14 00:34:16;;;;;;;0.08;0.08;;;;;;;-145.06;100.00;63404.56;10503493;28;20024;-71
2021/11/14 00:39:17;;;;;;;0.00;0.00;;;;;;;-145.06;100.00;63404.56;10534717;28;20059;-71
2021/11/14 00:44:18;;;;;;;0.00;0.00;;;;;;;-145.06;100.00;63404.56;10525680;28;20032;-70
2021/11/14 00:49:18;;;;;;;0.10;0.10;;;;;;;-145.06;100.00;63404.56;10527281;28;20490;-71
2021/11/14 00:54:19;;;;;;;0.00;0.00;;;;;;;-145.06;100.00;63404.56;10521065;28;20026;-70
2021/11/14 00:59:19;;;;;;;0.00;0.00;;;;;;;-145.06;100.00;63404.56;10501821;28;20669;-71
2021/11/14 01:04:19;;;;;;;0.00;0.00;;;;;;;-145.06;100.00;63404.56;10503162;28;20035;-70
2021/11/14 01:09:20;;;;;;;0.00;0.00;;;;;;;-145.06;100.00;63404.56;10531734;28;20479;-71
2021/11/14 01:14:20;;;;;;;0.00;0.00;;;;;;;-145.06;100.00;63404.56;10514878;28;20052;-71
2021/11/14 01:19:21;;;;;;;0.10;0.10;;;;;;;-145.06;100.00;63404.56;10493449;28;20552;-70
2021/11/14 01:24:21;;;;;;;0.00;0.00;;;;;;;-145.06;100.00;63404.56;10527047;28;20445;-70
2021/11/14 01:29:21;;;;;;;0.00;0.00;;;;;;;-145.06;100.00;63404.56;10517151;28;20786;-70
2021/11/14 01:34:22;;;;;;;0.00;0.00;;;;;;;-145.06;100.00;63404.56;10494293;28;20036;-70
2021/11/14 01:39:22;;;;;;;0.00;0.00;;;;;;;-145.06;100.00;63404.56;10514253;28;20023;-70
2021/11/14 01:44:22;;;;;;;0.00;0.00;;;;;;;-145.06;100.00;63404.56;10516281;28;20394;-70
2021/11/14 01:49:23;;;;;;;0.00;0.00;;;;;;;-145.06;100.00;63404.56;10516368;28;20016;-71
2021/11/14 01:54:23;;;;;;;0.00;0.00;;;;;;;-145.06;100.00;63404.56;10513435;28;20016;-71
2021/11/14 01:59:24;;;;;;;0.00;0.00;;;;;;;-145.06;100.00;63404.56;10514105;28;20258;-70
2021/11/14 02:04:24;;;;;;;0.00;0.00;;;;;;;-145.06;100.00;63404.56;10526525;28;20020;-70
2021/11/14 02:09:24;;;;;;;0.00;0.00;;;;;;;-145.06;100.00;63404.56;10507440;28;20123;-71
2021/11/14 02:14:25;;;;;;;0.00;0.00;;;;;;;-145.06;100.00;63404.56;10500523;28;20315;-71
2021/11/14 02:19:25;;;;;;;0.00;0.00;;;;;;;-145.06;100.00;63404.56;10508904;28;20031;-70
2021/11/14 02:24:26;;;;;;;0.00;0.00;;;;;;;-145.06;100.00;63404.56;10489038;28;20474;-71
2021/11/14 02:29:26;;;;;;;0.00;0.00;;;;;;;-145.06;100.00;63404.56;10508755;28;20111;-70
2021/11/14 02:34:27;;;;;;;0.00;0.00;;;;;;;-145.06;100.00;63404.56;10520836;28;20016;-70
2021/11/14 02:39:27;;;;;;;0.00;0.00;;;;;;;-145.06;100.00;63404.56;10495865;28;20047;-71
2021/11/14 02:44:28;;;;;;;0.00;0.00;;;;;;;-145.06;100.00;63404.56;10489551;28;20295;-71
2021/11/14 02:49:29;;;;;;;0.00;0.00;;;;;;;-145.06;100.00;63404.56;10503767;28;20031;-71
2021/11/14 02:54:29;;;;;;;0.00;0.00;;;;;;;-145.06;100.00;63404.56;10503469;28;20028;-71
2021/11/14 02:59:30;;;;;;;0.00;0.00;;;;;;;-145.06;100.00;63404.56;10495206;28;20115;-71
2021/11/14 03:04:31;;;;;;;0.00;0.00;;;;;;;-145.06;100.00;63404.56;10506360;28;20048;-71
2021/11/14 03:09:33;;;;;;;0.00;0.00;;;;;;;-145.06;100.00;63404.56;10531049;28;20029;-71
2021/11/14 03:14:34;;;;;;;0.00;0.00;;;;;;;-145.06;100.00;63404.56;10498169;28;20023;-71
2021/11/14 03:19:35;;;;;;;0.00;0.00;;;;;;;-145.06;100.00;63404.56;10489107;28;20131;-71
2021/11/14 03:24:36;;;;;;;0.00;0.00;;;;;;;-145.06;100.00;63404.56;10505913;28;20368;-70
2021/11/14 03:29:36;;;;;;;0.00;0.00;;;;;;;-145.06;100.00;63404.56;10504289;28;20024;-71
2021/11/14 03:34:37;;;;;;;0.00;0.00;;;;;;;-145.06;100.00;63404.56;10509274;28;20076;-70
2021/11/14 03:39:37;;;;;;;0.00;0.00;;;;;;;-145.06;100.00;63404.56;10538390;28;20028;-70
2021/11/14 03:44:38;;;;;;;0.00;0.00;;;;;;;-145.06;100.00;63404.56;10497020;28;20051;-71
2021/11/14 03:49:38;;;;;;;0.00;0.00;;;;;;;-145.06;100.00;63404.56;10495918;28;20459;-71
2021/11/14 03:54:39;;;;;;;0.00;0.00;;;;;;;-145.06;100.00;63404.56;10497461;28;20104;-70
2021/11/14 03:59:39;;;;;;;0.10;0.10;;;;;;;-145.06;100.00;63404.56;10513034;28;20114;-71
2021/11/14 04:04:40;;;;;;;0.00;0.00;;;;;;;-145.06;100.00;63404.56;10536235;28;20020;-71
2021/11/14 04:09:40;;;;;;;0.00;0.00;;;;;;;-145.06;100.00;63404.56;10501560;28;20048;-71
2021/11/14 04:14:40;;;;;;;0.00;0.00;;;;;;;-145.06;100.00;63404.56;10500737;28;20259;-70
2021/11/14 04:19:41;;;;;;;0.00;0.00;;;;;;;-145.06;100.00;63404.56;10494916;28;20352;-70
2021/11/14 04:24:42;;;;;;;0.00;0.00;;;;;;;-145.06;100.00;63404.56;10508567;28;20020;-71
2021/11/14 04:29:42;;;;;;;0.00;0.00;;;;;;;-145.06;100.00;63404.56;10503625;28;20316;-71
2021/11/14 04:34:43;;;;;;;0.00;0.00;;;;;;;-145.06;100.00;63404.56;10521363;28;20065;-71
2021/11/14 04:39:43;;;;;;;0.00;0.00;;;;;;;-145.06;100.00;63404.56;10496155;28;20021;-71
2021/11/14 04:44:44;;;;;;;0.00;0.00;;;;;;;-145.06;100.00;63404.56;10514859;28;20074;-71
2021/11/14 04:49:44;;;;;;;0.00;0.00;;;;;;;-145.06;100.00;63404.56;10532176;28;20342;-71
2021/11/14 04:54:44;;;;;;;0.00;0.00;;;;;;;-145.06;100.00;63404.56;10508570;28;20634;-70
2021/11/14 04:59:45;;;;;;;0.00;0.00;;;;;;;-145.06;100.00;63404.56;10515982;28;20020;-71
2021/11/14 05:04:45;;;;;;;0.00;0.00;;;;;;;-145.06;100.00;63404.56;10512067;28;21515;-71
2021/11/14 05:09:46;;;;;;;0.08;0.08;;;;;;;-145.06;100.00;63404.56;10529326;28;20040;-70
2021/11/14 05:14:46;;;;;;;0.00;0.00;;;;;;;-145.06;100.00;63404.56;10491288;28;20024;-70
2021/11/14 05:19:46;;;;;;;0.00;0.00;;;;;;;-145.06;100.00;63404.56;10511612;28;20020;-71
2021/11/14 05:24:47;;;;;;;0.00;0.00;;;;;;;-145.06;100.00;63404.56;10498056;28;20459;-71
2021/11/14 05:29:47;;;;;;;0.00;0.00;;;;;;;-145.06;100.00;63404.56;10501479;28;20475;-71
2021/11/14 05:34:47;;;;;;;0.00;0.00;;;;;;;-145.06;100.00;63404.56;10530265;28;20016;-71
2021/11/14 05:39:48;;;;;;;0.00;0.00;;;;;;;-145.06;100.00;63404.56;10533577;28;20099;-71
2021/11/14 05:44:48;;;;;;;0.00;0.00;;;;;;;-145.06;100.00;63404.56;10527328;28;20433;-71
2021/11/14 05:49:48;;;;;;;0.00;0.00;;;;;;;-145.06;100.00;63404.56;10533365;28;20028;-71
2021/11/14 05:54:49;;;;;;;0.00;0.00;;;;;;;-145.06;100.00;63404.56;10532153;28;20262;-71
2021/11/14 06:05:24;;;;;;;0.00;0.00;;;;;;;-145.06;100.00;63404.56;10499724;28;20071;-71
2021/11/14 06:10:25;;;;;;;0.00;0.00;;;;;;;-145.06;100.00;63404.56;10519631;28;20438;-70
2021/11/14 06:15:25;;;;;;;0.00;0.00;;;;;;;-145.06;100.00;63404.56;10509853;28;20028;-71
2021/11/14 06:20:26;;;;;;;0.00;0.00;;;;;;;-145.06;100.00;63404.56;10505767;28;20448;-71
2021/11/14 06:25:27;;;;;;;0.00;0.00;;;;;;;-145.06;100.00;63404.56;10496215;28;20415;-71
2021/11/14 06:30:27;;;;;;;0.00;0.00;;;;;;;-145.06;100.00;63404.56;10498962;28;20023;-71
2021/11/14 06:35:28;;;;;;;0.00;0.00;;;;;;;-145.06;100.00;63404.56;10512366;28;20043;-70
2021/11/14 06:40:28;;;;;;;0.00;0.00;;;;;;;-145.06;100.00;63404.56;10531998;28;20034;-70
2021/11/14 06:45:28;;;;;;;0.00;0.00;;;;;;;-145.06;100.00;63404.56;10528735;28;20035;-71
2021/11/14 06:50:29;;;;;;;0.00;0.00;;;;;;;-145.06;100.00;63404.56;10523465;28;20107;-70
2021/11/14 06:55:29;;;;;;;0.08;0.08;;;;;;;-145.06;100.00;63404.56;10527815;28;20324;-71
2021/11/14 07:00:30;;;;;;;0.00;0.00;;;;;;;-145.06;100.00;63404.56;10498590;28;20029;-70
2021/11/14 07:05:30;;;;;;;0.00;0.00;;;;;;;-145.06;100.00;63404.56;10493729;28;20414;-71
2021/11/14 07:10:31;;;;;;;0.00;0.00;;;;;;;-145.06;100.00;63404.56;10497885;28;20031;-71
2021/11/14 07:15:31;;;;;;;0.10;0.10;;;;;;;-145.06;100.00;63404.56;10497082;28;20020;-71
2021/11/14 07:20:32;;;;;;;0.00;0.00;;;;;;;-145.06;100.00;63404.56;10500082;28;20263;-71
2021/11/14 07:25:32;;;;;;;0.00;0.00;;;;;;;-145.06;100.00;63404.56;10513534;28;20264;-71
2021/11/14 07:30:33;;;;;;;0.00;0.00;;;;;;;-145.06;100.00;63404.56;10508501;28;20020;-71
2021/11/14 07:35:33;;;;;;;0.10;0.10;;;;;;;-145.06;100.00;63404.56;10523790;28;20386;-71
2021/11/14 07:40:34;;;;;;;0.00;0.00;;;;;;;-145.06;100.00;63404.56;10535311;28;20027;-71
2021/11/14 07:45:34;;;;;;;0.00;0.00;;;;;;;-145.06;100.00;63404.56;10496088;28;20025;-70
2021/11/14 07:50:34;;;;;;;0.00;0.00;;;;;;;-145.06;100.00;63404.56;10513510;28;20026;-71
2021/11/14 07:55:35;;;;;;;0.00;0.00;;;;;;;-145.06;100.00;63404.56;10506300;28;20377;-71
2021/11/14 08:00:37;;;;;;;0.00;0.00;;;;;;;-145.06;100.00;63404.56;10510167;28;20020;-71
2021/11/14 08:05:39;;;;;;;0.00;0.00;;;;;;;-145.06;100.00;63404.56;10523290;28;20055;-71
2021/11/14 08:10:40;;;;;;;0.00;0.00;;;;;;;-145.06;100.00;63404.56;10531592;28;20479;-71
2021/11/14 08:15:41;;;;;;;0.00;0.00;;;;;;;-145.06;100.00;63404.56;10504171;28;20123;-71
2021/11/14 08:20:41;;;;;;;0.00;0.00;;;;;;;-145.06;100.00;63404.56;10525099;28;20597;-71
2021/11/14 08:25:43;;;;;;;0.00;0.00;;;;;;;-145.06;100.00;63404.56;10520438;28;20464;-71
2021/11/14 08:30:43;;;;;;;0.00;0.00;;;;;;;-145.06;100.00;63404.56;10508211;28;20016;-71
2021/11/14 08:35:44;;;;;;;0.00;0.00;;;;;;;-145.06;100.00;63404.56;10493230;28;20481;-71
2021/11/14 08:40:44;;;;;;;0.00;0.00;;;;;;;-145.06;100.00;63404.56;10495965;28;20544;-71
2021/11/14 08:45:45;;;;;;;0.00;0.00;;;;;;;-145.06;100.00;63404.56;10492971;28;20035;-71
2021/11/14 08:50:46;;;;;;;0.10;0.10;;;;;;;-145.06;100.00;63404.56;10495227;28;20104;-71
2021/11/14 08:55:47;;;;;;;0.10;0.10;;;;;;;-145.06;100.00;63404.56;10493577;28;20033;-71
2021/11/14 09:00:47;;;;;;;0.00;0.00;;;;;;;-145.06;100.00;63404.56;10527024;28;20024;-71
2021/11/14 09:05:47;;;;;;;0.00;0.00;;;;;;;-145.06;100.00;63404.56;10536254;28;20285;-71
2021/11/14 09:10:48;;;;;;;0.00;0.00;;;;;;;-145.06;100.00;63404.56;10536752;28;20024;-71
2021/11/14 09:15:50;;;;;;;0.00;0.00;;;;;;;-145.06;100.00;63404.56;10535698;28;20073;-71
2021/11/14 09:20:50;;;;;;;0.00;0.00;;;;;;;-145.06;100.00;63404.56;10536302;28;20028;-72
2021/11/14 09:25:50;;;;;;;0.00;0.00;;;;;;;-145.06;100.00;63404.56;10534733;28;20049;-72
2021/11/14 09:30:51;;;;;;;0.00;0.00;;;;;;;-145.06;100.00;63404.56;10529874;28;20028;-71
2021/11/14 09:35:52;;;;;;;0.03;0.03;;;;;;;-145.06;100.00;63404.56;10533937;28;20123;-72
2021/11/14 09:40:52;;;;;;;0.00;0.00;;;;;;;-145.06;100.00;63404.56;10535533;28;20062;-72
2021/11/14 09:45:53;;;;;;;0.00;0.00;;;;;;;-145.06;100.00;63404.56;10534736;28;20053;-72
2021/11/14 09:50:54;;;;;;;0.00;0.00;;;;;;;-145.06;100.00;63404.56;10535036;28;20027;-72
2021/11/14 09:55:57;;;;;;;0.10;0.10;;;;;;;-145.06;100.00;63404.56;10534666;28;20257;-72
2021/11/14 10:00:59;;;;;;;0.00;0.00;;;;;;;-145.06;100.00;63404.56;10532800;28;20030;-72
2021/11/14 10:05:59;;;;;;;0.00;0.00;;;;;;;-145.06;100.00;63404.56;10534032;28;20070;-72
2021/11/14 10:10:59;;;;;;;0.00;0.00;;;;;;;-145.06;100.00;63404.56;10534526;28;20059;-71
2021/11/14 10:16:10;;;;;;;0.00;0.00;;;;;;;-145.06;100.00;63404.56;10533522;28;20020;-72
2021/11/14 10:21:11;;;;;;;0.10;0.10;;;;;;;-145.06;100.00;63404.56;10533765;28;20027;-71
2021/11/14 10:26:11;;;;;;;0.00;0.00;;;;;;;-145.06;100.00;63404.56;10532138;28;20036;-71
2021/11/14 10:31:13;;;;;;;0.00;0.00;;;;;;;-145.06;100.00;63404.56;10533806;28;20064;-71
2021/11/14 10:36:14;;;;;;;0.00;0.00;;;;;;;-145.06;100.00;63404.56;10533517;28;20494;-71
2021/11/14 10:41:15;;;;;;;0.10;0.10;;;;;;;-145.06;100.00;63404.56;10541344;28;20136;-71
2021/11/14 10:46:20;;;;;;;0.00;0.00;;;;;;;-145.06;100.00;63404.56;10542051;28;20016;-71
2021/11/14 10:51:20;;;;;;;0.00;0.00;;;;;;;-145.06;100.00;63404.56;10540288;28;20032;-71
2021/11/14 10:56:20;;;;;;;0.00;0.00;;;;;;;-145.06;100.00;63404.56;10540719;28;20111;-71
2021/11/14 11:01:21;;;;;;;0.00;0.00;;;;;;;-145.06;100.00;63404.56;10556923;28;20055;-71
2021/11/14 11:06:26;;;;;;;0.10;0.10;;;;;;;-145.06;100.00;63404.56;10582058;28;20023;-71
2021/11/14 11:11:27;;;;;;;0.00;0.00;;;;;;;-145.06;100.00;63404.56;10583178;28;20062;-71
2021/11/14 11:16:30;;;;;;;0.10;0.10;;;;;;;-145.06;100.00;63404.56;10583258;28;20335;-72
2021/11/14 11:21:38;;;;;;;0.00;0.00;;;;;;;-145.06;100.00;63404.56;10582797;28;20027;-71
2021/11/14 11:26:41;;;;;;;0.00;0.00;;;;;;;-145.06;100.00;63404.56;10578765;28;20028;-72
2021/11/14 11:31:41;;;;;;;0.10;0.10;;;;;;;-145.06;100.00;63404.56;10548676;28;20028;-72
2021/11/14 11:36:42;;;;;;;0.10;0.10;;;;;;;-145.06;100.00;63404.56;10538986;28;20032;-72
2021/11/14 11:41:45;;;;;;;0.10;0.10;;;;;;;-145.06;100.00;63404.56;10530663;28;20428;-72
2021/11/14 11:46:53;;;;;;;0.10;0.10;;;;;;;-145.06;100.00;63404.56;10509823;28;20476;-72
2021/11/14 11:51:55;;;;;;;0.00;0.00;;;;;;;-145.06;100.00;63404.56;10504837;28;20012;-72
2021/11/14 11:56:55;;;;;;;0.00;0.00;;;;;;;-145.06;100.00;63404.56;10524692;28;20012;-72
2021/11/14 12:02:00;;;;;;;0.00;0.00;;;;;;;-145.06;100.00;63404.56;10514462;28;20024;-72
2021/11/14 12:07:05;;;;;;;0.10;0.10;;;;;;;-145.06;100.00;63404.56;10520605;28;20451;-72
2021/11/14 12:12:28;;;;;;;0.10;0.10;;;;;;;-145.06;100.00;63404.56;10526043;28;20022;-72
2021/11/14 12:17:29;;;;;;;0.00;0.00;;;;;;;-145.06;100.00;63404.56;10504509;28;20020;-72
2021/11/14 12:22:42;;;;;;;0.00;0.00;;;;;;;-145.06;100.00;63404.56;10514880;28;20031;-72
2021/11/14 12:27:44;;;;;;;0.00;0.00;;;;;;;-145.06;100.00;63404.56;10523537;28;20016;-72
2021/11/14 12:32:47;;;;;;;0.00;0.00;;;;;;;-145.06;100.00;63404.56;10523470;28;20035;-72
2021/11/14 12:37:55;;;;;;;0.00;0.00;;;;;;;-145.06;100.00;63404.56;10533699;28;20437;-72
2021/11/14 12:43:16;;;;;;;0.10;0.10;;;;;;;-145.06;100.00;63404.56;10511614;28;20048;-72
2021/11/14 12:48:19;;;;;;;0.00;0.00;;;;;;;-145.06;100.00;63404.56;10510651;28;20106;-72
2021/11/14 12:53:20;;;;;;;0.10;0.10;;;;;;;-145.06;100.00;63404.56;10525378;28;20066;-73
2021/11/14 12:58:21;;;;;;;0.10;0.10;;;;;;;-145.06;100.00;63404.56;10496664;28;20047;-72
2021/11/14 13:03:25;;;;;;;0.10;0.10;;;;;;;-145.06;100.00;63404.56;10503099;28;20017;-73
2021/11/14 13:08:30;;;;;;;0.10;0.10;;;;;;;-145.06;100.00;63404.56;10494853;28;20024;-72
2021/11/14 13:13:38;;;;;;;0.05;0.05;;;;;;;-145.06;100.00;63404.56;10505315;28;20071;-73
2021/11/14 13:18:39;;;;;;;0.05;0.05;;;;;;;-145.06;100.00;63404.56;10491375;28;20048;-72
2021/11/14 13:23:51;;;;;;;0.00;0.00;;;;;;;-145.06;100.00;63404.56;10531804;28;20024;-73
2021/11/14 13:28:52;;;;;;;0.00;0.00;;;;;;;-145.06;100.00;63404.56;10512324;28;20040;-73
2021/11/14 13:34:16;;;;;;;0.00;0.00;;;;;;;-145.06;100.00;63404.56;10503742;28;20042;-73
2021/11/14 13:39:26;;;;;;;0.00;0.00;;;;;;;-145.06;100.00;63404.56;10533838;28;20103;-73
2021/11/14 13:44:43;;;;;;;0.00;0.00;;;;;;;-145.06;100.00;63404.56;10515232;28;20031;-73
2021/11/14 13:49:47;;;;;;;0.08;0.08;;;;;;;-145.06;100.00;63404.56;10520009;28;20071;-73
2021/11/14 13:54:50;;;;;;;0.00;0.00;;;;;;;-145.06;100.00;63404.56;10518185;28;20012;-73
2021/11/14 13:59:51;;;;;;;0.00;0.00;;;;;;;-145.06;100.00;63404.56;10516787;28;20051;-73
2021/11/14 14:05:01;;;;;;;0.00;0.00;;;;;;;-145.06;100.00;63404.56;10510554;28;20032;-73
2021/11/14 14:10:11;;;;;;;0.10;0.10;;;;;;;-145.06;100.00;63404.56;10516322;28;20444;-73
2021/11/14 14:15:22;;;;;;;0.03;0.03;;;;;;;-145.06;100.00;63404.56;10506160;28;20474;-74
2021/11/14 14:25:36;;;;;;;0.10;0.10;;;;;;;-145.06;100.00;63404.56;10522185;28;20064;-75
2021/11/14 14:30:38;;;;;;;0.08;0.08;;;;;;;-145.06;100.00;63404.56;10512259;28;20032;-75
2021/11/14 14:35:48;;;;;;;0.08;0.08;;;;;;;-145.06;100.00;63404.56;10530648;28;20099;-75
2021/11/14 14:40:53;;;;;;;0.00;0.00;;;;;;;-145.06;100.00;63404.56;10513350;28;20050;-74
2021/11/14 14:46:04;;;;;;;0.10;0.10;;;;;;;-145.06;100.00;63404.56;10533680;28;20030;-77
2021/11/14 14:51:09;;;;;;;0.00;0.00;;;;;;;-145.06;100.00;63404.56;10550691;28;20038;-76
2021/11/14 14:56:23;;;;;;;0.00;0.00;;;;;;;-145.06;100.00;63404.56;10568298;28;20016;-69
2021/11/14 15:01:37;;;;;;;0.00;0.00;;;;;;;-145.06;100.00;63404.56;10568831;28;20055;-68
2021/11/14 15:06:38;;;;;;;0.00;0.00;;;;;;;-145.06;100.00;63404.56;10571638;28;20039;-69
2021/11/14 15:11:39;;;;;;;0.00;0.00;;;;;;;-145.06;100.00;63404.56;10571081;28;20028;-69
2021/11/14 15:16:39;;;;;;;0.00;0.00;;;;;;;-145.06;100.00;63404.56;10570498;28;20455;-69
2021/11/14 15:21:39;;;;;;;0.10;0.10;;;;;;;-145.06;100.00;63404.56;10567643;28;20144;-69
2021/11/14 15:26:41;;;;;;;0.00;0.00;;;;;;;-145.06;100.00;63404.56;10574810;28;20374;-70
2021/11/14 15:31:41;;;;;;;0.00;0.00;;;;;;;-145.06;100.00;63404.56;10579493;28;20023;-70
2021/11/14 15:36:41;;;;;;;0.00;0.00;;;;;;;-145.06;100.00;63404.56;10578305;28;20030;-74
2021/11/14 15:41:42;;;;;;;0.08;0.08;;;;;;;-145.06;100.00;63404.56;10577664;28;20027;-70
2021/11/14 15:46:46;;;;;;;0.10;0.10;;;;;;;-145.06;100.00;63404.56;10578223;28;20020;-71
2021/11/14 15:51:46;;;;;;;0.00;0.00;;;;;;;-145.06;100.00;63404.56;10575091;28;20102;-71
2021/11/14 15:56:47;;;;;;;0.00;0.00;;;;;;;-145.06;100.00;63404.56;10574983;28;20107;-71
2021/11/14 16:01:47;;;;;;;0.05;0.05;;;;;;;-145.06;100.00;63404.56;10558201;28;20047;-71
2021/11/14 16:06:47;;;;;;;0.00;0.00;;;;;;;-145.06;100.00;63404.56;10576665;28;20015;-71
2021/11/14 16:11:48;;;;;;;0.00;0.00;;;;;;;-145.06;100.00;63404.56;10577010;28;20340;-71
2021/11/14 16:16:48;;;;;;;0.10;0.10;;;;;;;-145.06;100.00;63404.56;10576430;28;20073;-71
2021/11/14 16:21:49;;;;;;;0.00;0.00;;;;;;;-145.06;100.00;63404.56;10570894;28;20283;-71
2021/11/14 16:26:50;;;;;;;0.03;0.03;;;;;;;-145.06;100.00;63404.56;10571539;28;20016;-71
2021/11/14 16:31:52;;;;;;;0.00;0.00;;;;;;;-145.06;100.00;63404.56;10574948;28;20031;-71
2021/11/14 16:36:53;;;;;;;0.00;0.00;;;;;;;-145.06;100.00;63404.56;10557482;28;20062;-71
2021/11/14 16:41:53;;;;;;;0.00;0.00;;;;;;;-145.06;100.00;63404.56;10575456;28;20084;-71
2021/11/14 16:46:54;;;;;;;0.10;0.10;;;;;;;-145.06;100.00;63404.56;10575113;28;20065;-71
2021/11/14 16:51:54;;;;;;;0.00;0.00;;;;;;;-145.06;100.00;63404.56;10571292;28;20024;-71
2021/11/14 16:56:55;;;;;;;0.00;0.00;;;;;;;-145.06;100.00;63404.56;10570119;28;20028;-71
2021/11/14 17:01:55;;;;;;;0.00;0.00;;;;;;;-145.06;100.00;63404.56;10575208;28;20099;-71
2021/11/14 17:06:55;;;;;;;0.00;0.00;;;;;;;-145.06;100.00;63404.56;10574853;28;20038;-71
2021/11/14 17:11:55;;;;;;;0.00;0.00;;;;;;;-145.06;100.00;63404.56;10574324;28;20261;-71
2021/11/14 17:16:56;;;;;;;0.00;0.00;;;;;;;-145.06;100.00;63404.56;10568394;28;20024;-71
2021/11/14 17:21:56;;;;;;;0.00;0.00;;;;;;;-145.06;100.00;63404.56;10570726;28;20495;-71
2021/11/14 17:26:56;;;;;;;0.00;0.00;;;;;;;-145.06;100.00;63404.56;10570167;28;20127;-71
2021/11/14 17:31:57;;;;;;;0.10;0.10;;;;;;;-145.06;100.00;63404.56;10563940;28;20044;-71
2021/11/14 17:36:58;;;;;;;0.00;0.00;;;;;;;-145.06;100.00;63404.56;10575052;28;20707;-72
2021/11/14 17:41:59;;;;;;;0.00;0.00;;;;;;;-145.06;100.00;63404.56;10556371;28;20020;-71
2021/11/14 17:46:59;;;;;;;0.00;0.00;;;;;;;-145.06;100.00;63404.56;10573816;28;20012;-71
2021/11/14 17:51:59;;;;;;;0.00;0.00;;;;;;;-145.06;100.00;63404.56;10570174;28;20030;-71
2021/11/14 17:57:00;;;;;;;0.00;0.00;;;;;;;-145.06;100.00;63404.56;10573465;28;20290;-71
2021/11/14 18:02:01;;;;;;;0.10;0.10;;;;;;;-145.06;100.00;63404.56;10573177;28;20020;-71
2021/11/14 18:07:02;;;;;;;0.05;0.05;;;;;;;-145.06;100.00;63404.56;10554149;28;20274;-70
2021/11/14 18:12:02;;;;;;;0.00;0.00;;;;;;;-145.06;100.00;63404.56;10572714;28;20492;-70
2021/11/14 18:17:04;;;;;;;0.00;0.00;;;;;;;-145.06;100.00;63404.56;10572838;28;20020;-70
2021/11/14 18:22:04;;;;;;;0.00;0.00;;;;;;;-145.06;100.00;63404.56;10568607;28;20023;-70
2021/11/14 18:27:04;;;;;;;0.00;0.00;;;;;;;-145.06;100.00;63404.56;10549794;28;20412;-70
2021/11/14 18:32:07;;;;;;;0.00;0.00;;;;;;;-145.06;100.00;63404.56;10551711;28;20755;-71
2021/11/14 18:37:07;;;;;;;0.00;0.00;;;;;;;-145.06;100.00;63404.56;10552499;28;20319;-70
2021/11/14 18:42:08;;;;;;;0.00;0.00;;;;;;;-145.06;100.00;63404.56;10570970;28;20494;-70
2021/11/14 18:47:09;;;;;;;0.00;0.00;;;;;;;-145.06;100.00;63404.56;10571549;28;20022;-70
2021/11/14 18:52:09;;;;;;;0.00;0.00;;;;;;;-145.06;100.00;63404.56;10571159;28;20030;-70
2021/11/14 18:57:09;;;;;;;0.00;0.00;;;;;;;-145.06;100.00;63404.56;10568852;28;20022;-70
2021/11/14 19:02:10;;;;;;;0.00;0.00;;;;;;;-145.06;100.00;63404.56;10575570;28;20039;-71
2021/11/14 19:07:10;;;;;;;0.00;0.00;;;;;;;-145.06;100.00;63404.56;10579051;28;20025;-70
2021/11/14 19:12:10;;;;;;;0.00;0.00;;;;;;;-145.06;100.00;63404.56;10578718;28;20062;-70
2021/11/14 19:17:11;;;;;;;0.00;0.00;;;;;;;-145.06;100.00;63404.56;10578565;28;20458;-70
2021/11/14 19:22:12;;;;;;;0.00;0.00;;;;;;;-145.06;100.00;63404.56;10572087;28;20030;-70
2021/11/14 19:27:12;;;;;;;0.00;0.00;;;;;;;-145.06;100.00;63404.56;10575383;28;20277;-70
2021/11/14 19:32:12;;;;;;;0.00;0.00;;;;;;;-145.06;100.00;63404.56;10577332;28;20445;-70
2021/11/14 19:37:13;;;;;;;0.00;0.00;;;;;;;-145.06;100.00;63404.56;10577973;28;20019;-71
2021/11/14 19:42:18;;;;;;;0.10;0.10;;;;;;;-145.06;100.00;63404.56;10574252;28;20137;-70
2021/11/14 19:47:19;;;;;;;0.00;0.00;;;;;;;-145.06;100.00;63404.56;10576949;28;20273;-71
2021/11/14 19:52:19;;;;;;;0.00;0.00;;;;;;;-145.06;100.00;63404.56;10553790;28;20112;-71
2021/11/14 19:57:19;;;;;;;0.00;0.00;;;;;;;-145.06;100.00;63404.56;10577158;28;20047;-70
2021/11/14 20:02:21;;;;;;;0.00;0.00;;;;;;;-145.06;100.00;63404.56;10576647;28;20183;-71
2021/11/14 20:07:24;;;;;;;0.00;0.00;;;;;;;-145.06;100.00;63404.56;10574663;28;20038;-70
2021/11/14 20:12:24;;;;;;;0.00;0.00;;;;;;;-145.06;100.00;63404.56;10575786;28;20061;-71
2021/11/14 20:17:26;;;;;;;0.00;0.00;;;;;;;-145.06;100.00;63404.56;10575987;28;20332;-70
2021/11/14 20:22:26;;;;;;;0.00;0.00;;;;;;;-145.06;100.00;63404.56;10571488;28;20261;-71
2021/11/14 20:27:28;;;;;;;0.00;0.00;;;;;;;-145.06;100.00;63404.56;10574935;28;20378;-71
2021/11/14 20:32:29;;;;;;;0.00;0.00;;;;;;;-145.06;100.00;63404.56;10575121;28;20280;-70
2021/11/14 20:37:30;;;;;;;0.00;0.00;;;;;;;-145.06;100.00;63404.56;10575491;28;20031;-70
2021/11/14 20:42:30;;;;;;;0.00;0.00;;;;;;;-145.06;100.00;63404.56;10575291;28;20073;-71
2021/11/14 20:47:30;;;;;;;0.00;0.00;;;;;;;-145.06;100.00;63404.56;10574306;28;20076;-71
2021/11/14 20:52:31;;;;;;;0.00;0.00;;;;;;;-145.06;100.00;63404.56;10570216;28;20454;-70
2021/11/14 20:57:33;;;;;;;0.00;0.00;;;;;;;-145.06;100.00;63404.56;10574176;28;20043;-71
2021/11/14 21:02:33;;;;;;;0.00;0.00;;;;;;;-145.06;100.00;63404.56;10554483;28;20019;-70
2021/11/14 21:07:34;;;;;;;0.00;0.00;;;;;;;-145.06;100.00;63404.56;10574501;28;20031;-71
2021/11/14 21:12:35;;;;;;;0.00;0.00;;;;;;;-145.06;100.00;63404.56;10573648;28;20423;-71
2021/11/14 21:17:37;;;;;;;0.00;0.00;;;;;;;-145.06;100.00;63404.56;10573811;28;20018;-70
2021/11/14 21:22:37;;;;;;;0.00;0.00;;;;;;;-145.06;100.00;63404.56;10568613;28;20945;-71
2021/11/14 21:27:39;;;;;;;0.00;0.00;;;;;;;-145.06;100.00;63404.56;10572044;28;20044;-70
2021/11/14 21:32:43;;;;;;;0.00;0.00;;;;;;;-145.06;100.00;63404.56;10572744;28;20016;-70
2021/11/14 21:43:02;;;;;;;0.00;0.00;;;;;;;-145.06;100.00;63404.56;10572937;28;20024;-70
2021/11/14 21:48:03;;;;;;;0.10;0.10;;;;;;;-145.06;100.00;63404.56;10572733;28;20027;-70
2021/11/14 21:53:06;;;;;;;0.00;0.00;;;;;;;-145.06;100.00;63404.56;10567538;28;20027;-70
2021/11/14 21:58:07;;;;;;;0.00;0.00;;;;;;;-145.06;100.00;63404.56;10534096;22;20029;-66
2021/11/14 22:03:07;;;;;;;0.00;0.00;;;;;;;-145.06;100.00;63404.56;10490661;28;20507;-66
2021/11/14 22:08:09;;;;;;;0.00;0.00;;;;;;;-145.06;100.00;63404.56;10491154;28;20027;-66
2021/11/14 22:13:09;;;;;;;0.00;0.00;;;;;;;-145.06;100.00;63404.56;10490560;28;20462;-66
2021/11/14 22:18:10;;;;;;;0.00;0.00;;;;;;;-145.06;100.00;63404.56;10490654;28;20051;-66
2021/11/14 22:23:10;;;;;;;0.00;0.00;;;;;;;-145.06;100.00;63404.56;10474220;28;20029;-66
2021/11/14 22:28:11;;;;;;;0.00;0.00;;;;;;;-145.06;100.00;63404.56;10488826;28;20025;-66
2021/11/14 22:33:11;;;;;;;0.00;0.00;;;;;;;-145.06;100.00;63404.56;10490461;28;20715;-67
2021/11/14 22:38:12;;;;;;;0.00;0.00;;;;;;;-145.06;100.00;63404.56;10490071;28;20023;-67
2021/11/14 22:43:13;;;;;;;0.08;0.08;;;;;;;-145.06;100.00;63404.56;10488176;28;20021;-67
2021/11/14 22:48:14;;;;;;;0.00;0.00;;;;;;;-145.06;100.00;63404.56;10488432;28;20029;-67
2021/11/14 22:53:15;;;;;;;0.00;0.00;;;;;;;-145.06;100.00;63404.56;10481028;28;20040;-67